East Lewisburg, Pennsylvania
Current Conditions -  °F | °C
As of 3:53 PM on Monday 22 Dec 2014 (Local Time) from KSEG Reporting Station
Overcast Overcast  
Wind Chill:   Ceiling: 3600
Heat Index:   Visibility: 9mi
Dew Point: -3°   Wind: 0mph
Humidity: 70%   Direction: NA
Pressure: 30.19"   Gusts: NA
Location:  41.0147°N, 76.8093°W
Report Text: KSEG 222053Z AUTO 00000KT 9SM OVC036 02/M03 A3019 RMK AO2 SLP230 T00171033 56015
Loading
Personal Weather Stations






























Interactive Weather Map New forecast layout! Learn more

10-Day Weather Forecast

Advertisements
Track Severe Weather on mobile